createdAt,value
2022-11-18T00:01:35.199Z,98585.31
2022-11-18T00:04:04.898Z,98599.88
2022-11-18T00:06:31.529Z,98600.78
2022-11-18T00:09:00.457Z,98611.84
2022-11-18T00:11:48.336Z,98610.13
2022-11-18T00:14:19.013Z,98606.59
2022-11-18T00:16:54.999Z,98615.22
2022-11-18T00:19:24.372Z,98625.41
2022-11-18T00:21:51.309Z,98622.84
2022-11-18T00:24:18.509Z,98629.69
2022-11-18T00:26:45.508Z,98624.53
2022-11-18T00:29:12.983Z,98623.66
2022-11-18T00:31:39.836Z,98614.34
2022-11-18T00:34:06.951Z,98618.63
2022-11-18T00:36:33.589Z,98619.44
2022-11-18T00:39:00.122Z,98634.00
2022-11-18T00:41:46.647Z,98627.13
2022-11-18T00:44:13.265Z,98640.81
2022-11-18T00:46:39.848Z,98631.38
2022-11-18T00:49:07.044Z,98647.63
2022-11-18T00:51:33.551Z,98645.06
2022-11-18T00:54:00.170Z,98645.97
2022-11-18T00:56:26.678Z,98651.97
2022-11-18T00:58:53.264Z,98667.28
2022-11-18T01:01:19.829Z,98657.09
2022-11-18T01:03:47.093Z,98668.97
2022-11-18T01:06:13.764Z,98667.25
2022-11-18T01:08:40.428Z,98660.34
2022-11-18T01:11:26.140Z,98676.72
2022-11-18T01:13:53.665Z,98668.09
2022-11-18T01:16:22.759Z,98687.81
2022-11-18T01:18:49.413Z,98675.88
2022-11-18T01:21:16.435Z,98683.41
2022-11-18T01:23:43.374Z,98683.44
2022-11-18T01:26:11.917Z,98696.22
2022-11-18T01:28:38.826Z,98694.69
2022-11-18T01:31:08.645Z,98691.34
2022-11-18T01:33:35.336Z,98699.91
2022-11-18T01:36:02.223Z,98705.75
2022-11-18T01:38:28.927Z,98711.78
2022-11-18T01:40:56.768Z,98705.78
2022-11-18T01:43:24.052Z,98712.59
2022-11-18T01:45:53.863Z,98719.34
2022-11-18T01:48:35.119Z,98726.28
2022-11-18T01:51:09.711Z,98731.41
2022-11-18T01:53:40.744Z,98723.75
2022-11-18T01:56:26.737Z,98739.09
2022-11-18T01:58:59.120Z,98753.63
2022-11-18T02:01:26.594Z,98747.69
2022-11-18T02:03:53.919Z,98748.50
2022-11-18T02:06:20.745Z,98755.25
2022-11-18T02:08:48.250Z,98756.25
2022-11-18T02:11:34.539Z,98763.00
2022-11-18T02:14:04.033Z,98766.31
2022-11-18T02:16:38.014Z,98767.97
2022-11-18T02:19:32.058Z,98764.59
2022-11-18T02:22:01.655Z,98767.13
2022-11-18T02:24:58.842Z,98764.59
2022-11-18T02:27:44.753Z,98762.19
2022-11-18T02:30:13.856Z,98760.28
2022-11-18T02:32:46.031Z,98755.22
2022-11-18T02:35:40.915Z,98764.53
2022-11-18T02:38:13.551Z,98755.25
2022-11-18T02:40:45.898Z,98767.97
2022-11-18T02:43:21.921Z,98767.22
2022-11-18T02:45:56.380Z,98766.28
2022-11-18T02:48:24.737Z,98758.56
2022-11-18T02:50:52.853Z,98755.97
2022-11-18T02:53:21.479Z,98745.72
2022-11-18T02:55:49.856Z,98735.47
2022-11-18T02:58:20.166Z,98732.06
2022-11-18T03:00:54.633Z,98733.69
2022-11-18T03:03:27.103Z,98727.00
2022-11-18T03:06:11.391Z,98723.50
2022-11-18T03:09:00.924Z,98719.31
2022-11-18T03:11:30.970Z,98718.44
2022-11-18T03:14:00.477Z,98723.44
2022-11-18T03:16:32.878Z,98714.88
2022-11-18T03:19:14.798Z,98719.31
2022-11-18T03:21:45.781Z,98721.75
2022-11-18T03:24:15.766Z,98720.88
2022-11-18T03:26:49.452Z,98721.69
2022-11-18T03:29:21.665Z,98725.88
2022-11-18T03:32:01.056Z,98725.94
2022-11-18T03:34:39.307Z,98734.44
2022-11-18T03:37:10.702Z,98742.03
2022-11-18T03:39:41.718Z,98727.66
2022-11-18T03:42:27.002Z,98732.72
2022-11-18T03:45:20.769Z,98736.94
2022-11-18T03:47:55.743Z,98734.50
2022-11-18T03:50:27.817Z,98732.66
2022-11-18T03:52:55.470Z,98725.91
2022-11-18T03:55:30.003Z,98740.34
2022-11-18T03:58:00.472Z,98741.25
2022-11-18T04:00:33.134Z,98751.53
2022-11-18T04:02:59.747Z,98739.50
2022-11-18T04:05:28.022Z,98751.50
2022-11-18T04:08:04.972Z,98765.88
2022-11-18T04:10:37.392Z,98764.25
2022-11-18T04:13:32.720Z,98768.38
2022-11-18T04:16:00.224Z,98754.03
2022-11-18T04:18:27.208Z,98761.78
2022-11-18T04:20:53.902Z,98782.09
2022-11-18T04:23:20.541Z,98785.53
2022-11-18T04:25:47.165Z,98797.53
2022-11-18T04:28:13.623Z,98802.56
2022-11-18T04:30:40.155Z,98800.97
2022-11-18T04:33:06.663Z,98828.28
2022-11-18T04:35:33.199Z,98829.19
2022-11-18T04:37:59.721Z,98834.34
2022-11-18T04:40:26.240Z,98837.66
2022-11-18T04:42:52.729Z,98835.09
2022-11-18T04:45:19.492Z,98842.00
2022-11-18T04:47:45.978Z,98846.19
2022-11-18T04:50:12.516Z,98842.88
2022-11-18T04:52:39.097Z,98870.00
2022-11-18T04:55:05.794Z,98870.94
2022-11-18T04:57:32.291Z,98865.00
2022-11-18T04:59:58.887Z,98882.84
2022-11-18T05:02:25.434Z,98865.94
2022-11-18T05:04:51.903Z,98881.97
2022-11-18T05:07:18.440Z,98883.69
2022-11-18T05:09:45.295Z,98893.09
2022-11-18T05:12:33.765Z,98886.25
2022-11-18T05:15:00.704Z,98891.06
2022-11-18T05:17:27.302Z,98882.63
2022-11-18T05:19:53.869Z,98882.47
2022-11-18T05:22:21.232Z,98874.88
2022-11-18T05:24:47.768Z,98870.66
2022-11-18T05:27:14.920Z,98865.56
2022-11-18T05:29:41.635Z,98878.44
2022-11-18T05:32:08.354Z,98885.31
2022-11-18T05:34:34.955Z,98884.41
2022-11-18T05:37:01.514Z,98880.22
2022-11-18T05:39:28.115Z,98877.56
2022-11-18T05:42:13.051Z,98876.75
2022-11-18T05:44:39.526Z,98871.66
2022-11-18T05:47:06.324Z,98878.28
2022-11-18T05:49:32.887Z,98868.19
2022-11-18T05:51:59.507Z,98876.66
2022-11-18T05:54:26.602Z,98879.13
2022-11-18T05:56:53.270Z,98857.97
2022-11-18T05:59:20.154Z,98869.06
2022-11-18T06:02:06.813Z,98877.50
2022-11-18T06:04:44.690Z,98891.09
2022-11-18T06:07:17.736Z,98898.06
2022-11-18T06:09:49.579Z,98903.28
2022-11-18T06:12:21.619Z,98905.72
2022-11-18T06:15:02.220Z,98920.16
2022-11-18T06:17:41.988Z,98913.56
2022-11-18T06:20:09.463Z,98922.13
2022-11-18T06:22:36.292Z,98921.19
2022-11-18T06:25:03.486Z,98929.88
2022-11-18T06:27:30.534Z,98939.16
2022-11-18T06:29:56.996Z,98947.78
2022-11-18T06:32:23.880Z,98949.38
2022-11-18T06:34:50.407Z,98959.47
2022-11-18T06:37:20.594Z,98956.22
2022-11-18T06:39:47.382Z,98981.59
2022-11-18T06:42:36.943Z,98980.00
2022-11-18T06:45:04.851Z,98985.31
2022-11-18T06:47:31.447Z,98989.38
2022-11-18T06:49:57.986Z,98997.22
2022-11-18T06:52:24.732Z,98985.53
2022-11-18T06:54:51.281Z,98992.28
2022-11-18T06:57:17.798Z,98989.03
2022-11-18T06:59:44.399Z,99000.16
2022-11-18T07:02:10.967Z,99005.28
2022-11-18T07:04:39.741Z,99003.69
2022-11-18T07:07:07.559Z,99017.91
2022-11-18T07:09:35.014Z,99018.66
2022-11-18T07:12:01.860Z,99011.28
2022-11-18T07:14:28.444Z,99012.97
2022-11-18T07:16:55.503Z,99021.47
2022-11-18T07:19:22.921Z,99010.28
2022-11-18T07:21:49.457Z,99027.34
2022-11-18T07:24:16.466Z,99030.03
2022-11-18T07:26:43.111Z,99036.25
2022-11-18T07:29:10.362Z,99039.72
2022-11-18T07:31:39.058Z,99040.63
2022-11-18T07:34:06.585Z,99051.88
2022-11-18T07:36:35.968Z,99048.53
2022-11-18T07:39:04.645Z,99063.00
2022-11-18T07:41:31.271Z,99071.38
2022-11-18T07:44:01.098Z,99069.84
2022-11-18T07:46:35.749Z,99078.41
2022-11-18T07:49:05.730Z,99074.28
2022-11-18T07:51:34.962Z,99084.69
2022-11-18T07:54:06.011Z,99083.81
2022-11-18T07:56:32.551Z,99101.03
2022-11-18T07:58:59.607Z,99111.97
2022-11-18T08:01:30.947Z,99130.50
2022-11-18T08:04:03.785Z,99153.16
2022-11-18T08:06:33.145Z,99146.53
2022-11-18T08:09:00.085Z,99155.72
2022-11-18T08:11:26.996Z,99160.09
2022-11-18T08:13:53.539Z,99169.78
2022-11-18T08:16:22.528Z,99166.81
2022-11-18T08:18:49.154Z,99182.09
2022-11-18T08:21:17.637Z,99196.97
2022-11-18T08:23:48.850Z,99184.72
2022-11-18T08:26:15.766Z,99190.88
2022-11-18T08:28:43.600Z,99185.94
2022-11-18T08:31:15.636Z,99209.41
2022-11-18T08:33:42.371Z,99203.00
2022-11-18T08:36:12.632Z,99203.91
2022-11-18T08:38:39.862Z,99229.38
2022-11-18T08:41:07.399Z,99235.94
2022-11-18T08:43:36.997Z,99227.78
2022-11-18T08:46:03.599Z,99232.06
2022-11-18T08:48:30.163Z,99231.88
2022-11-18T08:50:57.975Z,99236.50
2022-11-18T08:53:24.503Z,99238.00
2022-11-18T08:55:58.097Z,99245.06
2022-11-18T08:58:25.661Z,99243.28
2022-11-18T09:00:52.560Z,99254.44
2022-11-18T09:03:19.436Z,99261.16
2022-11-18T09:05:46.127Z,99267.19
2022-11-18T09:08:12.685Z,99259.16
2022-11-18T09:10:39.460Z,99274.47
2022-11-18T09:13:33.421Z,99285.50
2022-11-18T09:15:52.557Z,99291.75
2022-11-18T09:18:19.045Z,99295.28
2022-11-18T09:20:54.747Z,99292.59
2022-11-18T09:23:21.294Z,99304.69
2022-11-18T09:25:47.960Z,99298.06
2022-11-18T09:28:14.521Z,99315.69
2022-11-18T09:30:41.288Z,99312.38
2022-11-18T09:33:07.875Z,99315.28
2022-11-18T09:35:35.158Z,99319.47
2022-11-18T09:38:01.714Z,99320.25
2022-11-18T09:40:28.277Z,99320.41
2022-11-18T09:43:19.465Z,99313.34
2022-11-18T09:45:54.632Z,99318.97
2022-11-18T09:48:45.490Z,99318.22
2022-11-18T09:51:12.684Z,99327.06
2022-11-18T09:53:44.465Z,99337.13
2022-11-18T09:56:16.106Z,99337.97
2022-11-18T09:58:44.119Z,99335.59
2022-11-18T10:01:14.693Z,99343.75
2022-11-18T10:03:41.485Z,99342.38
2022-11-18T10:06:23.408Z,99337.91
2022-11-18T10:09:06.650Z,99334.44
2022-11-18T10:12:32.765Z,99340.41
2022-11-18T10:15:09.792Z,99347.81
2022-11-18T10:18:05.808Z,99354.75
2022-11-18T10:20:52.224Z,99338.63
2022-11-18T10:23:24.426Z,99335.28
2022-11-18T10:25:53.673Z,99342.44
2022-11-18T10:28:26.412Z,99334.94
2022-11-18T10:30:53.117Z,99343.34
2022-11-18T10:33:22.543Z,99344.31
2022-11-18T10:35:50.138Z,99335.66
2022-11-18T10:38:20.669Z,99341.47
2022-11-18T10:41:01.372Z,99337.41
2022-11-18T10:43:46.516Z,99340.34
2022-11-18T10:46:27.305Z,99337.41
2022-11-18T10:49:09.107Z,99332.66
2022-11-18T10:51:49.385Z,99329.84
2022-11-18T10:54:19.743Z,99331.56
2022-11-18T10:56:58.133Z,99332.22
2022-11-18T10:59:32.745Z,99332.19
2022-11-18T11:02:11.424Z,99320.28
2022-11-18T11:04:39.393Z,99320.97
2022-11-18T11:07:25.481Z,99319.31
2022-11-18T11:10:01.362Z,99318.38
2022-11-18T11:12:32.570Z,99318.28
2022-11-18T11:15:10.125Z,99305.63
2022-11-18T11:17:36.799Z,99299.56
2022-11-18T11:20:22.936Z,99293.75
2022-11-18T11:22:49.646Z,99297.78
2022-11-18T11:25:19.621Z,99297.84
2022-11-18T11:28:16.782Z,99280.69
2022-11-18T11:31:09.646Z,99267.88
2022-11-18T11:33:42.180Z,99268.72
2022-11-18T11:36:22.287Z,99256.13
2022-11-18T11:39:18.395Z,99253.63
2022-11-18T11:42:02.173Z,99262.69
2022-11-18T11:44:37.562Z,99256.63
2022-11-18T11:47:47.848Z,99254.06
2022-11-18T11:50:32.819Z,99249.00
2022-11-18T11:53:28.493Z,99240.75
2022-11-18T11:56:06.855Z,99234.66
2022-11-18T11:59:02.845Z,99233.03
2022-11-18T12:01:48.211Z,99232.00
2022-11-18T12:04:55.268Z,99242.53
2022-11-18T12:07:29.716Z,99232.84
2022-11-18T12:10:18.477Z,99232.91
2022-11-18T12:12:54.010Z,99236.31
2022-11-18T12:15:42.159Z,99244.22
2022-11-18T12:18:21.250Z,99237.41
2022-11-18T12:20:52.476Z,99238.41
2022-11-18T12:23:27.728Z,99240.06
2022-11-18T12:25:57.414Z,99245.34
2022-11-18T12:28:45.094Z,99235.06
2022-11-18T12:31:17.791Z,99234.97
2022-11-18T12:33:48.588Z,99238.31
2022-11-18T12:36:35.044Z,99225.56
2022-11-18T12:39:23.573Z,99225.47
2022-11-18T12:42:14.710Z,99229.91
2022-11-18T12:44:42.653Z,99229.91
2022-11-18T12:47:16.927Z,99238.41
2022-11-18T12:49:46.473Z,99226.44
2022-11-18T12:52:31.024Z,99237.41
2022-11-18T12:55:02.460Z,99238.34
2022-11-18T12:57:34.188Z,99234.19
2022-11-18T13:00:52.329Z,99235.94
2022-11-18T13:03:24.814Z,99230.00
2022-11-18T13:06:00.785Z,99235.25
2022-11-18T13:08:29.133Z,99231.69
2022-11-18T13:11:26.776Z,99228.41
2022-11-18T13:14:14.125Z,99231.06
2022-11-18T13:17:00.113Z,99228.03
2022-11-18T13:19:27.249Z,99221.16
2022-11-18T13:22:17.295Z,99212.66
2022-11-18T13:24:52.461Z,99211.84
2022-11-18T13:27:25.272Z,99203.25
2022-11-18T13:30:01.299Z,99203.28
2022-11-18T13:32:29.283Z,99202.41
2022-11-18T13:34:58.708Z,99193.06
2022-11-18T13:37:31.221Z,99192.09
2022-11-18T13:39:58.414Z,99188.63
2022-11-18T13:42:26.103Z,99193.97
2022-11-18T13:44:55.629Z,99208.41
2022-11-18T13:47:28.985Z,99205.75
2022-11-18T13:50:01.665Z,99211.78
2022-11-18T13:52:36.716Z,99222.78
2022-11-18T13:55:14.928Z,99215.25
2022-11-18T13:57:45.591Z,99218.78
2022-11-18T14:00:24.590Z,99222.97
2022-11-18T14:02:56.964Z,99219.63
2022-11-18T14:05:23.798Z,99214.47
2022-11-18T14:08:05.003Z,99212.66
2022-11-18T14:10:42.840Z,99214.34
2022-11-18T14:13:20.712Z,99204.16
2022-11-18T14:15:47.383Z,99212.84
2022-11-18T14:18:30.202Z,99212.81
2022-11-18T14:20:57.275Z,99207.53
2022-11-18T14:23:28.968Z,99208.38
2022-11-18T14:25:56.779Z,99219.44
2022-11-18T14:28:28.035Z,99209.94
2022-11-18T14:31:05.186Z,99211.69
2022-11-18T14:33:32.835Z,99210.00
2022-11-18T14:36:01.977Z,99198.91
2022-11-18T14:39:24.960Z,99198.09
2022-11-18T14:41:49.927Z,99190.22
2022-11-18T14:44:18.723Z,99186.88
2022-11-18T14:46:48.832Z,99198.72
2022-11-18T14:49:22.360Z,99193.59
2022-11-18T14:51:50.590Z,99185.16
2022-11-18T14:54:25.547Z,99186.09
2022-11-18T14:56:56.484Z,99188.59
2022-11-18T14:59:23.147Z,99182.50
2022-11-18T15:01:49.760Z,99183.38
2022-11-18T15:04:17.948Z,99186.88
2022-11-18T15:06:44.748Z,99186.53
2022-11-18T15:09:12.667Z,99194.25
2022-11-18T15:11:39.571Z,99184.88
2022-11-18T15:14:08.948Z,99186.84
2022-11-18T15:16:35.950Z,99186.75
2022-11-18T15:19:04.724Z,99191.78
2022-11-18T15:21:32.541Z,99185.78
2022-11-18T15:23:59.216Z,99200.34
2022-11-18T15:26:26.899Z,99199.44
2022-11-18T15:28:56.065Z,99205.44
2022-11-18T15:31:24.140Z,99200.34
2022-11-18T15:33:51.250Z,99213.03
2022-11-18T15:36:23.898Z,99213.81
2022-11-18T15:38:51.627Z,99210.59
2022-11-18T15:41:23.994Z,99211.59
2022-11-18T15:43:50.534Z,99223.25
2022-11-18T15:46:21.622Z,99223.06
2022-11-18T15:48:51.274Z,99223.91
2022-11-18T15:51:18.053Z,99225.84
2022-11-18T15:53:44.631Z,99231.59
2022-11-18T15:56:15.351Z,99228.13
2022-11-18T15:58:42.022Z,99231.47
2022-11-18T16:01:08.690Z,99229.00
2022-11-18T16:03:35.380Z,99230.63
2022-11-18T16:06:01.872Z,99231.63
2022-11-18T16:08:29.348Z,99240.28
2022-11-18T16:11:15.357Z,99243.13
2022-11-18T16:13:42.207Z,99258.84
2022-11-18T16:16:18.127Z,99261.31
2022-11-18T16:18:44.884Z,99254.56
2022-11-18T16:21:11.418Z,99246.66
2022-11-18T16:23:37.991Z,99251.09
2022-11-18T16:26:04.631Z,99248.28
2022-11-18T16:28:31.127Z,99251.75
2022-11-18T16:31:15.946Z,99258.50
2022-11-18T16:33:42.369Z,99260.16
2022-11-18T16:36:08.888Z,99263.56
2022-11-18T16:38:35.459Z,99272.97
2022-11-18T16:41:21.935Z,99280.50
2022-11-18T16:43:49.752Z,99279.63
2022-11-18T16:46:16.237Z,99279.56
2022-11-18T16:48:42.762Z,99282.13
2022-11-18T16:51:24.095Z,99284.81
2022-11-18T16:54:02.387Z,99267.56
2022-11-18T16:56:31.147Z,99281.84
2022-11-18T16:59:02.855Z,99281.69
2022-11-18T17:01:30.270Z,99274.31
2022-11-18T17:04:00.607Z,99281.09
2022-11-18T17:06:28.045Z,99286.94
2022-11-18T17:08:54.529Z,99284.41
2022-11-18T17:11:21.373Z,99293.84
2022-11-18T17:13:49.411Z,99295.28
2022-11-18T17:16:19.509Z,99298.59
2022-11-18T17:18:47.049Z,99297.69
2022-11-18T17:21:19.269Z,99305.41
2022-11-18T17:23:46.136Z,99301.16
2022-11-18T17:26:14.619Z,99301.66
2022-11-18T17:28:41.701Z,99296.59
2022-11-18T17:31:10.032Z,99299.84
2022-11-18T17:33:37.233Z,99297.94
2022-11-18T17:36:09.250Z,99297.53
2022-11-18T17:38:38.241Z,99302.31
2022-11-18T17:41:05.612Z,99303.19
2022-11-18T17:43:32.159Z,99302.59
2022-11-18T17:46:03.108Z,99297.66
2022-11-18T17:48:31.641Z,99312.66
2022-11-18T17:51:05.358Z,99298.44
2022-11-18T17:53:32.649Z,99311.59
2022-11-18T17:56:03.694Z,99302.59
2022-11-18T17:58:30.889Z,99311.41
2022-11-18T18:00:57.497Z,99307.63
2022-11-18T18:03:24.100Z,99303.53
2022-11-18T18:05:50.725Z,99299.94
2022-11-18T18:08:17.250Z,99304.03
2022-11-18T18:10:43.769Z,99294.84
2022-11-18T18:13:28.884Z,99299.03
2022-11-18T18:16:00.406Z,99293.28
2022-11-18T18:18:26.991Z,99291.28
2022-11-18T18:20:53.535Z,99283.69
2022-11-18T18:23:20.051Z,99291.31
2022-11-18T18:25:46.546Z,99297.34
2022-11-18T18:28:13.064Z,99302.00
2022-11-18T18:30:39.618Z,99284.44
2022-11-18T18:33:06.176Z,99295.31
2022-11-18T18:35:32.857Z,99297.84
2022-11-18T18:38:00.253Z,99288.56
2022-11-18T18:40:26.789Z,99299.72
2022-11-18T18:42:53.301Z,99301.38
2022-11-18T18:45:38.059Z,99297.09
2022-11-18T18:48:05.385Z,99306.75
2022-11-18T18:50:33.059Z,99311.03
2022-11-18T18:52:59.642Z,99309.03
2022-11-18T18:55:26.154Z,99308.94
2022-11-18T18:57:52.657Z,99310.69
2022-11-18T19:00:19.430Z,99319.34
2022-11-18T19:02:45.940Z,99321.66
2022-11-18T19:05:12.421Z,99321.22
2022-11-18T19:07:42.232Z,99328.28
2022-11-18T19:10:09.116Z,99335.03
2022-11-18T19:12:46.280Z,99326.69
2022-11-18T19:15:14.143Z,99340.22
2022-11-18T19:17:41.238Z,99329.97
2022-11-18T19:20:29.504Z,99332.72
2022-11-18T19:22:58.354Z,99331.53
2022-11-18T19:25:24.804Z,99330.13
2022-11-18T19:27:51.284Z,99332.78
2022-11-18T19:30:17.890Z,99333.53
2022-11-18T19:32:44.503Z,99332.72
2022-11-18T19:35:11.479Z,99328.66
2022-11-18T19:37:38.378Z,99334.31
2022-11-18T19:40:09.194Z,99330.22
2022-11-18T19:42:37.785Z,99323.53
2022-11-18T19:45:08.213Z,99328.00
2022-11-18T19:47:34.706Z,99333.41
2022-11-18T19:50:01.835Z,99324.78
2022-11-18T19:52:28.924Z,99326.06
2022-11-18T19:54:57.585Z,99331.97
2022-11-18T19:57:26.615Z,99331.66
2022-11-18T19:59:53.204Z,99333.16
2022-11-18T20:02:19.781Z,99329.75
2022-11-18T20:05:06.823Z,99340.47
2022-11-18T20:07:34.643Z,99334.75
2022-11-18T20:10:01.319Z,99334.31
2022-11-18T20:12:28.588Z,99343.56
2022-11-18T20:14:55.241Z,99347.03
2022-11-18T20:17:23.203Z,99345.59
2022-11-18T20:19:49.745Z,99347.16
2022-11-18T20:22:16.232Z,99352.44
2022-11-18T20:24:42.696Z,99342.56
2022-11-18T20:27:09.788Z,99338.94
2022-11-18T20:29:36.322Z,99348.56
2022-11-18T20:32:02.825Z,99357.59
2022-11-18T20:34:29.353Z,99360.47
2022-11-18T20:36:56.069Z,99352.84
2022-11-18T20:39:22.874Z,99360.25
2022-11-18T20:42:09.943Z,99357.16
2022-11-18T20:44:36.520Z,99357.56
2022-11-18T20:47:03.084Z,99355.97
2022-11-18T20:49:29.680Z,99359.09
2022-11-18T20:51:56.245Z,99369.00
2022-11-18T20:54:22.784Z,99369.59
2022-11-18T20:56:49.303Z,99375.94
2022-11-18T20:59:16.557Z,99375.38
2022-11-18T21:01:43.327Z,99371.84
2022-11-18T21:04:11.639Z,99380.63
2022-11-18T21:06:38.591Z,99378.00
2022-11-18T21:09:05.952Z,99378.44
2022-11-18T21:11:36.135Z,99377.81
2022-11-18T21:14:23.897Z,99376.75
2022-11-18T21:16:53.065Z,99385.03
2022-11-18T21:19:19.980Z,99386.81
2022-11-18T21:21:51.965Z,99392.25
2022-11-18T21:24:21.409Z,99376.84
2022-11-18T21:26:49.337Z,99385.41
2022-11-18T21:29:17.161Z,99381.63
2022-11-18T21:31:45.811Z,99377.97
2022-11-18T21:34:13.442Z,99381.06
2022-11-18T21:36:46.903Z,99376.72
2022-11-18T21:39:14.894Z,99372.94
2022-11-18T21:41:42.428Z,99367.03
2022-11-18T21:44:13.919Z,99367.72
2022-11-18T21:46:42.409Z,99354.69
2022-11-18T21:49:09.456Z,99338.75
2022-11-18T21:51:36.569Z,99317.09
2022-11-18T21:54:03.415Z,99303.66
2022-11-18T21:56:31.100Z,99299.34
2022-11-18T21:59:00.094Z,99280.03
2022-11-18T22:01:29.518Z,99294.19
2022-11-18T22:04:00.841Z,99295.97
2022-11-18T22:06:32.670Z,99304.56
2022-11-18T22:09:00.508Z,99305.88
2022-11-18T22:11:28.251Z,99306.88
2022-11-18T22:13:55.088Z,99309.28
2022-11-18T22:16:23.790Z,99310.50
2022-11-18T22:18:57.294Z,99307.66
2022-11-18T22:21:26.843Z,99310.94
2022-11-18T22:23:57.156Z,99313.56
2022-11-18T22:26:23.660Z,99308.94
2022-11-18T22:28:53.611Z,99305.19
2022-11-18T22:31:21.330Z,99307.06
2022-11-18T22:33:49.795Z,99301.47
2022-11-18T22:36:18.523Z,99301.44
2022-11-18T22:38:46.891Z,99307.63
2022-11-18T22:41:40.899Z,99307.28
2022-11-18T22:44:08.713Z,99309.97
2022-11-18T22:46:40.071Z,99318.78
2022-11-18T22:49:07.863Z,99323.25
2022-11-18T22:51:35.778Z,99317.78
2022-11-18T22:56:49.477Z,99318.69
2022-11-18T22:59:17.341Z,99314.72
2022-11-18T23:01:44.268Z,99311.38
2022-11-18T23:04:10.870Z,99319.13
2022-11-18T23:06:37.475Z,99316.69
2022-11-18T23:09:04.516Z,99306.13
2022-11-18T23:11:49.691Z,99319.13
2022-11-18T23:14:16.254Z,99323.97
2022-11-18T23:16:43.669Z,99325.56
2022-11-18T23:19:17.461Z,99322.31
2022-11-18T23:21:45.053Z,99320.94
2022-11-18T23:24:14.080Z,99320.44
2022-11-18T23:26:41.214Z,99321.84
2022-11-18T23:29:07.894Z,99316.53
2022-11-18T23:31:34.525Z,99326.84
2022-11-18T23:34:01.097Z,99315.84
2022-11-18T23:36:28.155Z,99313.19
2022-11-18T23:38:54.821Z,99306.97
2022-11-18T23:41:22.351Z,99304.78
2022-11-18T23:43:52.015Z,99309.91
2022-11-18T23:46:19.472Z,99304.84
2022-11-18T23:48:46.701Z,99316.53
2022-11-18T23:51:17.891Z,99319.41
2022-11-18T23:53:45.639Z,99323.19
2022-11-18T23:56:17.319Z,99326.38
2022-11-18T23:58:46.725Z,99325.94
